| time (UTC) | temp C | wind direction | speed KPH | gust KPH | rain 1hr cm | rain 24hr cm | rain mn cm | humidity % | barometer mb |
| 20260505173818 | 5 | 55 | 0.0 | 0.0 | 0.00 | 1.55 | 1.55 | 86 | 1013.3 |
| 20260505173315 | 5 | 53 | 1.6 | 1.6 | 0.00 | 1.55 | 1.55 | 88 | 1013.4 |
| 20260505172813 | 5 | 54 | 0.0 | 0.0 | 0.18 | 1.55 | 1.55 | 88 | 1013.4 |
| 20260505172310 | 5 | 106 | 1.6 | 3.2 | 0.30 | 1.55 | 1.55 | 87 | 1013.3 |
| 20260505171804 | 5 | 63 | 0.0 | 0.0 | 0.13 | 1.52 | 1.52 | 85 | 1013.5 |
| 20260505171301 | 5 | 64 | 0.0 | 0.0 | 0.00 | 1.50 | 1.50 | 84 | 1013.3 |
| 20260505170757 | 5 | 77 | 1.6 | 1.6 | 0.18 | 1.50 | 1.50 | 86 | 1013.4 |
| 20260505170255 | 5 | 49 | 0.0 | 0.0 | 0.18 | 1.50 | 1.50 | 86 | 1013.3 |
| 20260505165750 | 5 | 47 | 0.0 | 0.0 | 0.00 | 1.47 | 1.47 | 84 | 1013.1 |
| 20260505165246 | 5 | 55 | 0.0 | 0.0 | 0.00 | 1.47 | 1.47 | 86 | 1013.0 |
| 20260505164742 | 5 | 52 | 1.6 | 1.6 | 0.00 | 1.47 | 1.47 | 87 | 1012.9 |
| 20260505164239 | 5 | 53 | 0.0 | 0.0 | 0.00 | 1.47 | 1.47 | 85 | 1013.0 |
| 20260505163737 | 5 | 38 | 3.2 | 3.2 | 0.00 | 1.47 | 1.47 | 87 | 1013.3 |
| 20260505163236 | 5 | 34 | 3.2 | 4.8 | 0.00 | 1.47 | 1.47 | 87 | 1013.4 |
| 20260505162732 | 5 | 44 | 0.0 | 1.6 | 0.00 | 1.47 | 1.47 | 88 | 1013.0 |
| 20260505162230 | 5 | 49 | 1.6 | 3.2 | 0.00 | 1.47 | 1.47 | 88 | 1013.4 |
| 20260505161726 | 5 | 53 | 0.0 | 0.0 | 0.00 | 1.47 | 1.47 | 89 | 1013.3 |
| 20260505161224 | 5 | 57 | 0.0 | 0.0 | 0.00 | 1.47 | 1.47 | 89 | 1013.1 |
| 20260505160721 | 4 | 49 | 3.2 | 4.8 | 0.00 | 1.47 | 1.47 | 90 | 1013.3 |
| 20260505160219 | 4 | 57 | 1.6 | 1.6 | 0.00 | 1.47 | 1.47 | 91 | 1013.1 |
| 20260505153158 | 3 | 68 | 1.6 | 3.2 | 0.48 | 1.45 | 1.45 | 93 | 1013.3 |
| 20260505152655 | 3 | 65 | 1.6 | 1.6 | 0.43 | 1.42 | 1.42 | 93 | 1013.3 |
| 20260505152151 | 2 | 66 | 0.0 | 0.0 | 0.30 | 1.37 | 1.37 | 93 | 1013.1 |
| 20260505151646 | 2 | 72 | 0.0 | 0.0 | 0.48 | 1.35 | 1.35 | 93 | 1013.4 |
| 20260505151144 | 2 | 72 | 0.0 | 1.6 | 0.61 | 1.32 | 1.32 | 92 | 1013.4 |
| 20260505150640 | 2 | 57 | 4.8 | 4.8 | 0.61 | 1.27 | 1.27 | 92 | 1013.4 |
| 20260505150137 | 2 | 65 | 3.2 | 3.2 | 0.48 | 1.22 | 1.22 | 91 | 1013.5 |
| 20260505140605 | 5 | 68 | 1.6 | 1.6 | 0.61 | 0.71 | 0.71 | 86 | 1013.3 |
| 20260505125019 | 5 | 53 | 0.0 | 0.0 | 0.13 | 0.15 | 0.15 | 85 | 1012.3 |
| 20260505124515 | 5 | 56 | 0.0 | 0.0 | 0.18 | 0.13 | 0.13 | 85 | 1012.1 |
| 20260505124012 | 6 | 54 | 3.2 | 3.2 | 0.18 | 0.13 | 0.13 | 83 | 1011.8 |
| 20260505123509 | 6 | 75 | 1.6 | 1.6 | 0.13 | 0.10 | 0.10 | 80 | 1011.9 |
| 20260505123004 | 5 | 88 | 3.2 | 4.8 | 0.13 | 0.10 | 0.10 | 82 | 1011.7 |
| 20260505122502 | 5 | 63 | 0.0 | 0.0 | 0.00 | 0.08 | 0.08 | 82 | 1011.7 |
| 20260505121958 | 5 | 128 | 4.8 | 4.8 | 0.00 | 0.08 | 0.08 | 81 | 1011.7 |
| 20260505121455 | 5 | 174 | 6.4 | 9.7 | 0.18 | 0.08 | 0.08 | 82 | 1011.7 |
| 20260505120951 | 5 | 177 | 4.8 | 6.4 | 0.18 | 0.08 | 0.08 | 82 | 1011.6 |
| 20260505120448 | 5 | 147 | 6.4 | 12.9 | 0.18 | 0.08 | 0.08 | 81 | 1011.6 |
| 20260505115947 | 5 | 81 | 4.8 | 9.7 | 0.00 | 0.05 | 0.05 | 80 | 1011.7 |
| 20260505115443 | 5 | 159 | 3.2 | 4.8 | 0.00 | 0.05 | 0.05 | 81 | 1011.8 |
| 20260505114942 | 5 | 87 | 4.8 | 9.7 | 0.13 | 0.05 | 0.05 | 82 | 1011.7 |
| 20260505114437 | 5 | 66 | 0.0 | 1.6 | 0.13 | 0.05 | 0.05 | 82 | 1011.7 |
| 20260505113934 | 5 | 64 | 6.4 | 11.3 | 0.00 | 0.03 | 0.03 | 81 | 1011.7 |
| 20260505113430 | 5 | 91 | 4.8 | 9.7 | 0.00 | 0.03 | 0.03 | 81 | 1011.5 |
| 20260505112926 | 6 | 110 | 6.4 | 9.7 | 0.00 | 0.03 | 0.03 | 81 | 1011.6 |
| 20260505112424 | 6 | 88 | 3.2 | 3.2 | 0.00 | 0.03 | 0.03 | 80 | 1011.7 |
| 20260505111920 | 6 | 55 | 1.6 | 4.8 | 0.00 | 0.03 | 0.03 | 79 | 1011.7 |
| 20260505111415 | 6 | 69 | 0.0 | 0.0 | 0.18 | 0.03 | 0.03 | 81 | 1011.7 |
| 20260505110912 | 6 | 76 | 3.2 | 4.8 | 0.18 | 0.03 | 0.03 | 81 | 1011.6 |
| 20260505110409 | 6 | 74 | 4.8 | 6.4 | 0.00 | 0.00 | 0.00 | 80 | 1011.6 |
| 20260505101839 | 8 | 52 | 0.0 | 1.6 | 0.00 | 0.00 | 0.00 | 73 | 1011.2 |
| 20260505101334 | 8 | 143 | 1.6 | 3.2 | 0.00 | 0.00 | 0.00 | 72 | 1011.1 |
| 20260505100830 | 8 | 73 | 3.2 | 4.8 | 0.00 | 0.00 | 0.00 | 70 | 1011.1 |
| 20260505100327 | 8 | 81 | 1.6 | 3.2 | 0.00 | 0.00 | 0.00 | 68 | 1011.3 |
| 20260505095822 | 9 | 75 | 3.2 | 4.8 | 0.00 | 0.00 | 0.00 | 66 | 1011.5 |
| 20260505095321 | 9 | 103 | 3.2 | 4.8 | 0.00 | 0.00 | 0.00 | 63 | 1011.2 |
| 20260505094816 | 10 | 73 | 0.0 | 0.0 | 0.00 | 0.00 | 0.00 | 60 | 1011.6 |
| 20260505094313 | 10 | 79 | 1.6 | 1.6 | 0.00 | 0.00 | 0.00 | 58 | 1011.3 |
| 20260505093809 | 10 | 63 | 0.0 | 1.6 | 0.00 | 0.00 | 0.00 | 58 | 1011.1 |
| 20260505093307 | 10 | 67 | 1.6 | 3.2 | 0.00 | 0.00 | 0.00 | 57 | 1011.3 |
| 20260505092803 | 10 | 69 | 3.2 | 3.2 | 0.00 | 0.00 | 0.00 | 57 | 1011.1 |
| 20260505092304 | 10 | 71 | 0.0 | 0.0 | 0.00 | 0.00 | 0.00 | 57 | 1011.1 |
| 20260505091759 | 10 | 72 | 0.0 | 1.6 | 0.00 | 0.00 | 0.00 | 57 | 1011.2 |
| 20260505091256 | 10 | 67 | 1.6 | 3.2 | 0.00 | 0.00 | 0.00 | 58 | 1011.1 |
| 20260505090754 | 10 | 59 | 0.0 | 0.0 | 0.00 | 0.00 | 0.00 | 58 | 1011.1 |
| 20260505090252 | 10 | 59 | 1.6 | 3.2 | 0.00 | 0.00 | 0.00 | 58 | 1011.0 |
| 20260505085749 | 9 | 126 | 1.6 | 3.2 | 0.00 | 0.00 | 0.00 | 59 | 1011.2 |
| 20260505085247 | 9 | 65 | 1.6 | 3.2 | 0.00 | 0.00 | 0.00 | 60 | 1011.2 |
| 20260505084744 | 9 | 55 | 0.0 | 0.0 | 0.00 | 0.00 | 0.00 | 60 | 1011.5 |
| 20260505084243 | 9 | 48 | 0.0 | 0.0 | 0.00 | 0.00 | 0.00 | 60 | 1011.3 |
| 20260505083739 | 9 | 55 | 1.6 | 3.2 | 0.00 | 0.00 | 0.00 | 61 | 1011.3 |
| 20260505083236 | 9 | 51 | 0.0 | 0.0 | 0.00 | 0.00 | 0.00 | 62 | 1011.5 |
| 20260505082732 | 9 | 51 | 0.0 | 0.0 | 0.00 | 0.00 | 0.00 | 62 | 1011.3 |
| 20260505082230 | 9 | 57 | 0.0 | 0.0 | 0.00 | 0.00 | 0.00 | 62 | 1011.7 |
| 20260505081725 | 9 | 62 | 0.0 | 0.0 | 0.00 | 0.00 | 0.00 | 62 | 1011.7 |
| 20260505081223 | 9 | 62 | 0.0 | 0.0 | 0.00 | 0.00 | 0.00 | 62 | 1011.8 |
| 20260505080720 | 9 | 62 | 0.0 | 0.0 | 0.00 | 0.00 | 0.00 | 62 | 1011.7 |
| 20260505080215 | 9 | 70 | 0.0 | 0.0 | 0.00 | 0.00 | 0.00 | 62 | 1011.6 |
| 20260505075711 | 9 | 88 | 0.0 | 0.0 | 0.00 | 0.00 | 0.00 | 62 | 1011.7 |
| 20260505075209 | 10 | 93 | 1.6 | 3.2 | 0.00 | 0.00 | 0.00 | 62 | 1012.1 |
| 20260505074706 | 10 | 76 | 0.0 | 0.0 | 0.00 | 0.00 | 0.00 | 62 | 1011.7 |
| 20260505074203 | 10 | 91 | 3.2 | 3.2 | 0.00 | 0.00 | 0.00 | 62 | 1011.6 |
| 20260505073700 | 10 | 115 | 1.6 | 3.2 | 0.00 | 0.00 | 0.00 | 61 | 1011.8 |
| 20260505073158 | 10 | 172 | 3.2 | 3.2 | 0.00 | 0.00 | 0.00 | 61 | 1011.9 |
| 20260505072654 | 10 | 79 | 1.6 | 1.6 | 0.00 | 0.00 | 0.00 | 61 | 1012.1 |
| 20260505072150 | 10 | 154 | 4.8 | 4.8 | 0.00 | 0.00 | 0.00 | 61 | 1011.9 |
| 20260505071646 | 10 | 67 | 1.6 | 3.2 | 0.00 | 0.00 | 0.00 | 62 | 1012.2 |
| 20260505071144 | 10 | 174 | 3.2 | 4.8 | 0.00 | 0.00 | 0.00 | 62 | 1011.9 |
| 20260505070641 | 10 | 188 | 1.6 | 3.2 | 0.00 | 0.00 | 0.00 | 62 | 1011.9 |
| 20260505070137 | 10 | 72 | 0.0 | 0.0 | 0.00 | 0.00 | 0.00 | 62 | 1012.1 |
| 20260505065633 | 9 | 66 | 1.6 | 3.2 | 0.00 | 0.00 | 0.00 | 64 | 1011.8 |
| 20260505065130 | 8 | 64 | 0.0 | 0.0 | 0.00 | 0.00 | 0.00 | 66 | 1012.3 |
| 20260505064627 | 8 | 60 | 1.6 | 3.2 | 0.00 | 0.00 | 0.00 | 66 | 1011.9 |
| 20260505064125 | 8 | 42 | 0.0 | 0.0 | 0.00 | 0.00 | 0.00 | 65 | 1011.9 |
| 20260505063622 | 9 | 42 | 1.6 | 1.6 | 0.00 | 0.00 | 0.00 | 64 | 1012.2 |
| 20260505063118 | 9 | 52 | 1.6 | 1.6 | 0.00 | 0.00 | 0.00 | 65 | 1011.8 |
| 20260505062615 | 9 | 43 | 0.0 | 0.0 | 0.00 | 0.00 | 0.00 | 64 | 1012.1 |
| 20260505062112 | 9 | 35 | 0.0 | 0.0 | 0.00 | 0.00 | 0.00 | 63 | 1012.1 |
| 20260505061609 | 9 | 35 | 0.0 | 0.0 | 0.00 | 0.00 | 0.00 | 63 | 1011.9 |
| 20260505061107 | 9 | 34 | 1.6 | 1.6 | 0.00 | 0.00 | 0.00 | 62 | 1012.1 |
| 20260505060604 | 8 | 44 | 0.0 | 0.0 | 0.00 | 0.00 | 0.00 | 63 | 1011.8 |
| 20260505055556 | 8 | 29 | 1.6 | 1.6 | 0.00 | 0.00 | 0.00 | 63 | 1011.8 |
| 20260505055053 | 8 | 41 | 0.0 | 0.0 | 0.00 | 0.00 | 0.00 | 62 | 1011.8 |
| 20260505054550 | 8 | 47 | 1.6 | 1.6 | 0.00 | 0.00 | 0.00 | 63 | 1011.7 |
| 20260505054049 | 7 | 34 | 0.0 | 0.0 | 0.00 | 0.00 | 0.00 | 64 | 1011.9 |
| 20260505053545 | 8 | 43 | 1.6 | 1.6 | 0.00 | 0.00 | 0.00 | 63 | 1011.8 |
| 20260505053042 | 8 | 61 | 1.6 | 1.6 | 0.00 | 0.00 | 0.00 | 63 | 1011.5 |
| 20260505052539 | 8 | 28 | 3.2 | 3.2 | 0.00 | 0.00 | 0.00 | 62 | 1011.5 |
| 20260505052037 | 8 | 54 | 0.0 | 0.0 | 0.00 | 0.00 | 0.00 | 62 | 1011.7 |
| 20260505051533 | 8 | 67 | 3.2 | 3.2 | 0.00 | 0.00 | 0.00 | 61 | 1011.6 |
| 20260505051031 | 8 | 67 | 1.6 | 3.2 | 0.00 | 0.00 | 0.00 | 61 | 1011.7 |
| 20260505050529 | 8 | 47 | 0.0 | 0.0 | 0.00 | 0.00 | 0.00 | 61 | 1011.5 |
| 20260505041457 | 10 | 53 | 0.0 | 0.0 | 0.00 | 0.00 | 0.00 | 56 | 1010.9 |
| 20260505040954 | 11 | 60 | 1.6 | 1.6 | 0.00 | 0.00 | 0.00 | 56 | 1010.9 |
| 20260505040451 | 11 | 43 | 0.0 | 0.0 | 0.00 | 0.00 | 0.00 | 55 | 1011.0 |
| 20260505035948 | 11 | 42 | 0.0 | 0.0 | 0.00 | 0.00 | 0.00 | 55 | 1010.7 |
| 20260505035444 | 11 | 43 | 0.0 | 0.0 | 0.00 | 0.00 | 0.00 | 55 | 1010.9 |
| 20260505034942 | 11 | 43 | 0.0 | 0.0 | 0.00 | 0.00 | 0.00 | 56 | 1010.7 |
| 20260505034438 | 11 | 25 | 0.0 | 0.0 | 0.00 | 0.00 | 0.00 | 56 | 1010.6 |
| 20260505033935 | 11 | 25 | 0.0 | 0.0 | 0.00 | 0.00 | 0.00 | 55 | 1010.6 |
| 20260505033432 | 11 | 25 | 0.0 | 0.0 | 0.00 | 0.00 | 0.00 | 55 | 1010.6 |
| 20260505032930 | 11 | 25 | 0.0 | 0.0 | 0.00 | 0.00 | 0.00 | 55 | 1010.7 |
| 20260505032427 | 11 | 36 | 0.0 | 0.0 | 0.00 | 0.00 | 0.00 | 55 | 1010.7 |
| 20260505031923 | 11 | 36 | 0.0 | 0.0 | 0.00 | 0.00 | 0.00 | 53 | 1010.5 |
| 20260505031420 | 11 | 36 | 0.0 | 0.0 | 0.00 | 0.00 | 0.00 | 54 | 1010.6 |
| 20260505030917 | 11 | 36 | 0.0 | 0.0 | 0.00 | 0.00 | 0.00 | 53 | 1010.5 |
| 20260505030413 | 11 | 36 | 0.0 | 0.0 | 0.00 | 0.00 | 0.00 | 53 | 1010.7 |
| 20260505025909 | 12 | 36 | 0.0 | 0.0 | 0.00 | 0.00 | 0.00 | 52 | 1010.5 |
| 20260505025406 | 12 | 55 | 0.0 | 0.0 | 0.00 | 0.00 | 0.00 | 51 | 1010.7 |
| 20260505024905 | 12 | 55 | 0.0 | 0.0 | 0.00 | 0.00 | 0.00 | 50 | 1010.9 |
| 20260505024402 | 12 | 55 | 0.0 | 0.0 | 0.00 | 0.00 | 0.00 | 50 | 1010.7 |
| 20260505023859 | 12 | 57 | 0.0 | 0.0 | 0.00 | 0.00 | 0.00 | 49 | 1010.5 |
| 20260505023356 | 12 | 45 | 0.0 | 0.0 | 0.00 | 0.00 | 0.00 | 49 | 1010.5 |
| 20260505022853 | 12 | 42 | 0.0 | 0.0 | 0.00 | 0.00 | 0.00 | 49 | 1010.7 |
| 20260505022350 | 12 | 34 | 0.0 | 0.0 | 0.00 | 0.00 | 0.00 | 48 | 1010.9 |
| 20260505021848 | 12 | 36 | 0.0 | 0.0 | 0.00 | 0.00 | 0.00 | 48 | 1010.9 |
| 20260505021344 | 12 | 51 | 0.0 | 0.0 | 0.00 | 0.00 | 0.00 | 48 | 1010.4 |
| 20260505020840 | 12 | 116 | 3.2 | 6.4 | 0.00 | 0.00 | 0.00 | 48 | 1010.7 |
| 20260505020335 | 12 | 35 | 0.0 | 0.0 | 0.00 | 0.00 | 0.00 | 49 | 1010.5 |
| 20260505015832 | 13 | 36 | 0.0 | 0.0 | 0.00 | 0.00 | 0.00 | 49 | 1010.9 |
| 20260505015330 | 13 | 357 | 1.6 | 1.6 | 0.00 | 0.00 | 0.00 | 48 | 1010.7 |
| 20260505014827 | 13 | 53 | 1.6 | 1.6 | 0.00 | 0.00 | 0.00 | 48 | 1010.5 |
| 20260505014324 | 13 | 49 | 0.0 | 0.0 | 0.00 | 0.00 | 0.00 | 48 | 1010.7 |
| 20260505013820 | 13 | 252 | 1.6 | 1.6 | 0.00 | 0.00 | 0.00 | 48 | 1010.7 |
| 20260505013318 | 13 | 232 | 6.4 | 6.4 | 0.00 | 0.00 | 0.00 | 47 | 1011.1 |
| 20260505012816 | 13 | 204 | 4.8 | 4.8 | 0.00 | 0.00 | 0.00 | 48 | 1011.0 |
| 20260505012313 | 13 | 64 | 1.6 | 1.6 | 0.00 | 0.00 | 0.00 | 46 | 1010.7 |
| 20260505011809 | 13 | 73 | 1.6 | 1.6 | 0.00 | 0.00 | 0.00 | 45 | 1010.7 |
| 20260505011306 | 13 | 98 | 1.6 | 3.2 | 0.00 | 0.00 | 0.00 | 44 | 1010.7 |
| 20260505010802 | 14 | 109 | 1.6 | 3.2 | 0.00 | 0.00 | 0.00 | 43 | 1010.6 |
| 20260505010258 | 14 | 53 | 0.0 | 0.0 | 0.00 | 0.00 | 0.00 | 40 | 1010.7 |
| 20260505005754 | 14 | 58 | 0.0 | 0.0 | 0.00 | 0.00 | 0.00 | 40 | 1010.6 |
| 20260505005252 | 14 | 344 | 0.0 | 0.0 | 0.00 | 0.00 | 0.00 | 41 | 1010.6 |
| 20260505004749 | 15 | 329 | 3.2 | 3.2 | 0.00 | 0.00 | 0.00 | 40 | 1010.7 |
| 20260505004245 | 15 | 312 | 3.2 | 4.8 | 0.00 | 0.00 | 0.00 | 39 | 1010.6 |
| 20260505003742 | 15 | 353 | 3.2 | 4.8 | 0.00 | 0.00 | 0.00 | 40 | 1010.7 |
| 20260505003240 | 15 | 318 | 8.0 | 11.3 | 0.00 | 0.00 | 0.00 | 40 | 1010.6 |
| 20260505002736 | 15 | 336 | 6.4 | 6.4 | 0.00 | 0.00 | 0.00 | 39 | 1010.7 |
| 20260505002234 | 15 | 300 | 6.4 | 6.4 | 0.00 | 0.00 | 0.00 | 40 | 1011.0 |
| 20260505001731 | 16 | 354 | 3.2 | 3.2 | 0.00 | 0.00 | 0.00 | 40 | 1011.0 |
| 20260505001229 | 16 | 334 | 8.0 | 9.7 | 0.00 | 0.00 | 0.00 | 38 | 1011.1 |
| 20260505000725 | 16 | 351 | 4.8 | 4.8 | 0.00 | 0.00 | 0.00 | 40 | 1011.0 |
| 20260505000223 | 15 | 319 | 4.8 | 4.8 | 0.00 | 0.00 | 0.00 | 41 | 1011.0 |
| 20260504235719 | 16 | 322 | 6.4 | 6.4 | 0.00 | 0.00 | 0.00 | 40 | 1011.0 |
| 20260504235215 | 16 | 301 | 1.6 | 3.2 | 0.00 | 0.00 | 0.00 | 39 | 1011.1 |
| 20260504234713 | 16 | 329 | 4.8 | 4.8 | 0.00 | 0.00 | 0.00 | 40 | 1011.1 |
| 20260504234210 | 16 | 344 | 4.8 | 6.4 | 0.00 | 0.00 | 0.00 | 39 | 1011.1 |
| 20260504233706 | 15 | 329 | 3.2 | 3.2 | 0.00 | 0.00 | 0.00 | 42 | 1011.1 |
| 20260504233202 | 15 | 310 | 9.7 | 11.3 | 0.00 | 0.00 | 0.00 | 42 | 1011.2 |
| 20260504232700 | 15 | 295 | 9.7 | 11.3 | 0.00 | 0.00 | 0.00 | 42 | 1011.5 |
| 20260504232156 | 16 | 333 | 8.0 | 11.3 | 0.00 | 0.00 | 0.00 | 38 | 1011.2 |
| 20260504231653 | 17 | 252 | 9.7 | 12.9 | 0.00 | 0.00 | 0.00 | 38 | 1011.0 |
| 20260504231149 | 17 | 268 | 9.7 | 12.9 | 0.00 | 0.00 | 0.00 | 36 | 1011.0 |
| 20260504230646 | 16 | 350 | 8.0 | 9.7 | 0.00 | 0.00 | 0.00 | 37 | 1011.2 |
| 20260504230145 | 16 | 313 | 6.4 | 11.3 | 0.00 | 0.00 | 0.00 | 39 | 1011.5 |
| 20260504225643 | 16 | 257 | 9.7 | 11.3 | 0.00 | 0.00 | 0.00 | 38 | 1011.2 |
| 20260504225138 | 16 | 259 | 8.0 | 9.7 | 0.00 | 0.00 | 0.00 | 37 | 1011.6 |
| 20260504224635 | 17 | 286 | 12.9 | 16.1 | 0.00 | 0.00 | 0.00 | 38 | 1011.5 |
| 20260504224132 | 18 | 290 | 14.5 | 22.5 | 0.00 | 0.00 | 0.00 | 35 | 1011.5 |
| 20260504223629 | 17 | 185 | 8.0 | 11.3 | 0.00 | 0.00 | 0.00 | 36 | 1011.3 |
| 20260504223125 | 16 | 125 | 3.2 | 3.2 | 0.00 | 0.00 | 0.00 | 38 | 1011.8 |
| 20260504222622 | 15 | 179 | 6.4 | 9.7 | 0.00 | 0.00 | 0.00 | 43 | 1011.6 |
| 20260504222120 | 15 | 84 | 3.2 | 4.8 | 0.00 | 0.00 | 0.00 | 43 | 1011.5 |
| 20260504221616 | 15 | 159 | 1.6 | 4.8 | 0.00 | 0.00 | 0.00 | 44 | 1011.8 |
| 20260504221114 | 14 | 97 | 8.0 | 12.9 | 0.00 | 0.00 | 0.00 | 43 | 1011.7 |
| 20260504220610 | 14 | 70 | 3.2 | 3.2 | 0.00 | 0.00 | 0.00 | 44 | 1011.6 |
| 20260504220108 | 15 | 162 | 9.7 | 12.9 | 0.00 | 0.00 | 0.00 | 41 | 1011.7 |
| 20260504215603 | 15 | 167 | 6.4 | 12.9 | 0.00 | 0.00 | 0.00 | 37 | 1011.6 |
| 20260504215101 | 15 | 85 | 3.2 | 4.8 | 0.00 | 0.00 | 0.00 | 37 | 1011.8 |
| 20260504214557 | 16 | 162 | 4.8 | 6.4 | 0.00 | 0.00 | 0.00 | 37 | 1011.2 |
| 20260504214053 | 16 | 155 | 9.7 | 11.3 | 0.00 | 0.00 | 0.00 | 37 | 1011.3 |
| 20260504213550 | 16 | 111 | 1.6 | 1.6 | 0.00 | 0.00 | 0.00 | 37 | 1011.2 |
| 20260504213047 | 16 | 115 | 9.7 | 12.9 | 0.00 | 0.00 | 0.00 | 36 | 1011.0 |
| 20260504212543 | 17 | 161 | 6.4 | 11.3 | 0.00 | 0.00 | 0.00 | 36 | 1010.9 |
| 20260504212040 | 17 | 156 | 4.8 | 4.8 | 0.00 | 0.00 | 0.00 | 33 | 1011.1 |
| 20260504211537 | 17 | 66 | 6.4 | 6.4 | 0.00 | 0.00 | 0.00 | 31 | 1011.1 |
| 20260504211034 | 18 | 130 | 8.0 | 11.3 | 0.00 | 0.00 | 0.00 | 29 | 1010.7 |
| 20260504210531 | 18 | 109 | 3.2 | 9.7 | 0.00 | 0.00 | 0.00 | 31 | 1010.7 |
| 20260504210028 | 18 | 81 | 6.4 | 11.3 | 0.00 | 0.00 | 0.00 | 30 | 1011.0 |
| 20260504205526 | 17 | 134 | 3.2 | 6.4 | 0.00 | 0.00 | 0.00 | 33 | 1010.7 |
| 20260504205023 | 17 | 169 | 4.8 | 6.4 | 0.00 | 0.00 | 0.00 | 33 | 1010.7 |
| 20260504204521 | 17 | 165 | 4.8 | 6.4 | 0.00 | 0.00 | 0.00 | 34 | 1010.9 |
| 20260504204020 | 17 | 109 | 8.0 | 12.9 | 0.00 | 0.00 | 0.00 | 35 | 1011.0 |
| 20260504203518 | 17 | 35 | 3.2 | 3.2 | 0.00 | 0.00 | 0.00 | 35 | 1011.0 |
| 20260504203015 | 17 | 91 | 6.4 | 9.7 | 0.00 | 0.00 | 0.00 | 32 | 1011.2 |
| 20260504202510 | 18 | 105 | 6.4 | 6.4 | 0.00 | 0.00 | 0.00 | 31 | 1011.2 |
| 20260504202007 | 18 | 103 | 3.2 | 4.8 | 0.00 | 0.00 | 0.00 | 31 | 1011.3 |
| 20260504201504 | 18 | 39 | 3.2 | 4.8 | 0.00 | 0.00 | 0.00 | 29 | 1011.2 |
| 20260504201002 | 18 | 99 | 8.0 | 11.3 | 0.00 | 0.00 | 0.00 | 29 | 1011.2 |
| 20260504200458 | 18 | 106 | 8.0 | 9.7 | 0.00 | 0.00 | 0.00 | 30 | 1011.3 |
| 20260504195955 | 18 | 58 | 4.8 | 6.4 | 0.00 | 0.00 | 0.00 | 30 | 1011.5 |
| 20260504195451 | 18 | 78 | 6.4 | 11.3 | 0.00 | 0.00 | 0.00 | 29 | 1011.2 |
| 20260504194948 | 17 | 90 | 1.6 | 3.2 | 0.00 | 0.00 | 0.00 | 30 | 1011.3 |
| 20260504194444 | 17 | 131 | 4.8 | 6.4 | 0.00 | 0.00 | 0.00 | 31 | 1011.5 |
| 20260504193940 | 17 | 78 | 3.2 | 3.2 | 0.00 | 0.00 | 0.00 | 32 | 1011.3 |
| 20260504193437 | 17 | 324 | 1.6 | 3.2 | 0.00 | 0.00 | 0.00 | 32 | 1011.5 |
| 20260504192936 | 17 | 195 | 4.8 | 9.7 | 0.00 | 0.00 | 0.00 | 32 | 1011.7 |
| 20260504192432 | 17 | 184 | 8.0 | 11.3 | 0.00 | 0.00 | 0.00 | 33 | 1011.3 |
| 20260504191931 | 17 | 249 | 6.4 | 6.4 | 0.00 | 0.00 | 0.00 | 32 | 1011.3 |
| 20260504191429 | 17 | 260 | 8.0 | 9.7 | 0.00 | 0.00 | 0.00 | 32 | 1011.5 |
| 20260504190924 | 17 | 254 | 9.7 | 12.9 | 0.00 | 0.00 | 0.00 | 32 | 1011.5 |
| 20260504190420 | 17 | 242 | 8.0 | 9.7 | 0.00 | 0.00 | 0.00 | 34 | 1011.7 |
| 20260504185917 | 17 | 228 | 9.7 | 11.3 | 0.00 | 0.00 | 0.00 | 33 | 1011.6 |
| 20260504185414 | 17 | 293 | 6.4 | 6.4 | 0.00 | 0.00 | 0.00 | 33 | 1011.7 |
| 20260504184910 | 17 | 257 | 9.7 | 12.9 | 0.00 | 0.00 | 0.00 | 32 | 1011.6 |
| 20260504184406 | 17 | 283 | 9.7 | 12.9 | 0.00 | 0.00 | 0.00 | 34 | 1011.6 |
| 20260504183902 | 17 | 265 | 9.7 | 14.5 | 0.00 | 0.00 | 0.00 | 34 | 1011.3 |
| 20260504183400 | 17 | 273 | 14.5 | 17.7 | 0.00 | 0.00 | 0.00 | 33 | 1011.5 |
| 20260504182857 | 18 | 286 | 12.9 | 14.5 | 0.00 | 0.00 | 0.00 | 33 | 1011.9 |
| 20260504182354 | 18 | 255 | 14.5 | 17.7 | 0.00 | 0.00 | 0.00 | 33 | 1011.7 |
| 20260504181851 | 20 | 31 | 3.2 | 3.2 | 0.00 | 0.00 | 0.00 | 25 | 1011.3 |
| 20260504181348 | 20 | 307 | 4.8 | 4.8 | 0.00 | 0.00 | 0.00 | 25 | 1011.6 |
| 20260504180847 | 20 | 297 | 8.0 | 9.7 | 0.00 | 0.00 | 0.00 | 27 | 1011.8 |
| 20260504180345 | 20 | 341 | 3.2 | 4.8 | 0.00 | 0.00 | 0.00 | 28 | 1011.7 |
| 20260504175843 | 20 | 235 | 6.4 | 9.7 | 0.00 | 0.00 | 0.00 | 29 | 1011.7 |
| 20260504175339 | 20 | 268 | 4.8 | 6.4 | 0.00 | 0.00 | 0.00 | 30 | 1011.8 |
| 20260504174838 | 20 | 276 | 6.4 | 9.7 | 0.00 | 0.00 | 0.00 | 27 | 1011.8 |
| 20260504174335 | 20 | 25 | 1.6 | 1.6 | 0.00 | 0.00 | 0.00 | 29 | 1012.1 |